M I D A S
Marine Information and Data Acquisition System
Tripno 1205 of the Zeeleeuw from 2007-01-24 08:53:16 to 2007-01-24 15:26:34
Back to CruiseResearch ActivitiesStationsMapUnderway DataData graphs

EquipmentUnitsComment
TimeDGPSUTC
LatitudeDGPSDM.mWGS84
LongitudeDGPSDM.mWGS84
HeadingGyrodeg 
SOGDGPSknotsSpeed over ground
COGDGPSdegCourse over ground
DepthEcho soundermeters200 kHz
Missing or incorrect values are displayed as -999
Navigation data collected by the RV Zeeleeuw from 2007-01-24 08:08:57 to 2007-01-24 15:40:08
Time Latitude Longitude Heading SOG COG Depth
2007-01-24 08:10:02 51°13.598 2°56.09 127.3 -999 19 6.4
2007-01-24 08:11:02 51°13.598 2°56.086 127.2 -999 215 6.4
2007-01-24 08:12:01 51°13.599 2°56.096 127.1 -999 141 6.4
2007-01-24 08:13:01 51°13.598 2°56.092 127.1 -999 177 6.4
2007-01-24 08:14:02 51°13.598 2°56.093 127.1 -999 275 6.4
2007-01-24 08:15:02 51°13.597 2°56.093 127.1 -999 297 6.4
2007-01-24 08:16:02 51°13.598 2°56.094 127.1 -999 305 6.5
2007-01-24 08:17:02 51°13.596 2°56.097 127.1 -999 331 6.5
2007-01-24 08:18:02 51°13.597 2°56.097 127 -999 310 6.4
2007-01-24 08:19:01 51°13.599 2°56.093 127 -999 342 6.3
2007-01-24 08:20:02 51°13.6 2°56.092 127 -999 343 6.3
2007-01-24 08:21:02 51°13.6 2°56.094 127 -999 316 6.3
2007-01-24 08:22:02 51°13.6 2°56.091 126.9 -999 283 6.2
2007-01-24 08:23:01 51°13.601 2°56.091 126.9 -999 261 6.2
2007-01-24 08:24:02 51°13.599 2°56.096 126.9 -999 143 6.2
2007-01-24 08:25:02 51°13.601 2°56.092 126.9 -999 226 6.2
2007-01-24 08:26:02 51°13.6 2°56.092 126.9 -999 221 6.2
2007-01-24 08:27:02 51°13.6 2°56.093 126.9 -999 163 6.2
2007-01-24 08:28:02 51°13.6 2°56.093 126.9 -999 186 6.2
2007-01-24 08:29:02 51°13.599 2°56.093 126.9 -999 166 6.2
2007-01-24 08:30:02 51°13.599 2°56.094 126.9 -999 2 6.1
2007-01-24 08:31:02 51°13.599 2°56.094 127 -999 190 6.3
2007-01-24 08:32:02 51°13.6 2°56.093 127 -999 338 6.1
2007-01-24 08:33:02 51°13.6 2°56.092 126.9 -999 341 6.1
2007-01-24 08:34:02 51°13.6 2°56.091 126.9 -999 283 6.1
2007-01-24 08:35:02 51°13.599 2°56.092 126.9 -999 318 6.1
2007-01-24 08:36:02 51°13.598 2°56.094 126.9 -999 132 6.1
2007-01-24 08:37:02 51°13.597 2°56.095 126.8 -999 337 6.1
2007-01-24 08:38:02 51°13.598 2°56.094 126.8 0.1 353 6
2007-01-24 08:39:01 51°13.598 2°56.093 126.8 -999 350 6
2007-01-24 08:40:02 51°13.598 2°56.093 126.9 -999 353 6
2007-01-24 08:41:02 51°13.598 2°56.093 126.9 -999 186 6
2007-01-24 08:42:02 51°13.598 2°56.091 126.9 -999 215 6
2007-01-24 08:43:02 51°13.6 2°56.091 126.9 -999 65 5.9
2007-01-24 08:44:01 51°13.599 2°56.09 126.8 -999 306 5.9
2007-01-24 08:45:01 51°13.601 2°56.091 127 -999 300 5.9
2007-01-24 08:46:01 51°13.599 2°56.091 127 -999 276 5.9
2007-01-24 08:47:01 51°13.6 2°56.091 126.8 -999 274 5.9
2007-01-24 08:48:01 51°13.6 2°56.092 126.8 -999 22 5.9
2007-01-24 08:49:01 51°13.6 2°56.093 126.8 -999 195 5.9
2007-01-24 08:50:01 51°13.599 2°56.092 126.8 -999 45 5.9
2007-01-24 08:51:01 51°13.599 2°56.093 126.8 -999 136 5.9
2007-01-24 08:52:01 51°13.599 2°56.093 126.8 -999 85 5.9
2007-01-24 08:53:01 51°13.598 2°56.092 126.9 -999 222 5.8
2007-01-24 08:54:01 51°13.598 2°56.094 128.3 0.1 217 5.9
2007-01-24 08:55:01 51°13.598 2°56.094 126.2 -999 1 5.9
2007-01-24 08:56:01 51°13.597 2°56.092 114.7 0.3 282 6
2007-01-24 08:57:01 51°13.611 2°56.045 118.4 3.8 297 -999
2007-01-24 08:58:01 51°13.644 2°55.942 121.7 4.6 298 -999
2007-01-24 08:59:01 51°13.679 2°55.838 118.3 4.1 296 4.6
2007-01-24 09:00:01 51°13.699 2°55.756 105.3 2.5 287 11.5
2007-01-24 09:01:01 51°13.708 2°55.746 63.5 0.5 33 11.4
2007-01-24 09:02:01 51°13.707 2°55.734 45.7 0.3 301 11
2007-01-24 09:03:01 51°13.733 2°55.731 352.3 2.3 342 9.9
2007-01-24 09:04:01 51°13.764 2°55.703 331.9 2.1 331 8.5
2007-01-24 09:05:01 51°13.794 2°55.677 330.5 2 330 8.4
2007-01-24 09:06:01 51°13.822 2°55.65 331.6 2 332 8.9
2007-01-24 09:07:01 51°13.848 2°55.628 334.9 1.5 331 8.8
2007-01-24 09:08:01 51°13.861 2°55.619 337.5 0.7 340 9.3
2007-01-24 09:09:01 51°13.871 2°55.613 341 0.8 340 9.1
2007-01-24 09:10:01 51°13.884 2°55.605 341.7 0.8 339 9.3
2007-01-24 09:11:01 51°13.888 2°55.604 342.4 0.3 344 9.5
2007-01-24 09:12:01 51°13.899 2°55.598 339.6 1.2 338 9.5
2007-01-24 09:13:01 51°13.925 2°55.579 333.1 1.7 332 9.5
2007-01-24 09:14:01 51°13.945 2°55.563 337.2 1.3 335 9.4
2007-01-24 09:15:01 51°13.963 2°55.55 336.8 1.1 337 9.4
2007-01-24 09:16:01 51°13.994 2°55.528 337.1 4 335 9.3
2007-01-24 09:17:01 51°14.091 2°55.451 337.2 8.6 333 9.4
2007-01-24 09:18:01 51°14.23 2°55.316 328.8 10.3 322 9.3
2007-01-24 09:19:01 51°14.348 2°55.101 313.4 11.4 308 9.2
2007-01-24 09:20:01 51°14.444 2°54.829 292.9 12.4 282 9.3
2007-01-24 09:21:01 51°14.429 2°54.495 259.7 13 252 9.2
2007-01-24 09:22:01 51°14.334 2°54.185 245.4 13.1 242 7.7
2007-01-24 09:23:02 51°14.222 2°53.878 243.1 13.3 240 7.7
2007-01-24 09:24:02 51°14.11 2°53.573 243.2 13.3 238 7.8
2007-01-24 09:25:02 51°13.995 2°53.27 242.4 13.5 239 8
2007-01-24 09:26:02 51°13.881 2°52.965 242.6 13.5 237 8.2
2007-01-24 09:27:02 51°13.769 2°52.66 243 13.3 242 8.5
2007-01-24 09:28:02 51°13.653 2°52.348 243 14.2 243 8.6
2007-01-24 09:29:02 51°13.532 2°52.014 243.8 14.7 238 8.7
2007-01-24 09:30:02 51°13.414 2°51.671 244.5 14.9 243 8.8
2007-01-24 09:31:02 51°13.293 2°51.328 242.5 14.8 242 8.7
2007-01-24 09:32:02 51°13.174 2°50.985 244.4 14.7 241 9
2007-01-24 09:33:02 51°13.055 2°50.64 244.7 14.9 240 9.1
2007-01-24 09:34:02 51°12.935 2°50.296 243.5 14.8 239 9.3
2007-01-24 09:35:02 51°12.811 2°49.958 243 14.9 238 9.3
2007-01-24 09:36:01 51°12.69 2°49.624 242.3 15 239 9.4
2007-01-24 09:37:02 51°12.564 2°49.279 243.1 14.7 240 9.5
2007-01-24 09:38:02 51°12.439 2°48.941 242.3 14.8 241 9.5
2007-01-24 09:39:02 51°12.315 2°48.602 243.8 14.7 239 9.4
2007-01-24 09:40:02 51°12.191 2°48.262 242.9 14.7 239 9.5
2007-01-24 09:41:02 51°12.065 2°47.925 242.1 14.9 238 9.3
2007-01-24 09:42:02 51°11.941 2°47.588 243.6 14.6 236 9.1
2007-01-24 09:43:02 51°11.817 2°47.25 243.1 14.6 239 9
2007-01-24 09:44:02 51°11.698 2°46.909 242.6 14.8 242 8.6
2007-01-24 09:45:02 51°11.582 2°46.568 248.2 14.6 247 8.5
2007-01-24 09:46:02 51°11.526 2°46.189 262.5 14.8 258 9.2
2007-01-24 09:47:02 51°11.463 2°45.809 258.5 14.8 255 9.5
2007-01-24 09:48:02 51°11.396 2°45.429 258.1 14.9 253 9.8
2007-01-24 09:49:02 51°11.331 2°45.05 258.5 14.9 254 10.1
2007-01-24 09:50:02 51°11.268 2°44.671 258 14.7 255 10.2
2007-01-24 09:51:02 51°11.203 2°44.293 259.1 14.8 253 10.3
2007-01-24 09:52:01 51°11.141 2°43.922 258.9 14.6 253 10.4
2007-01-24 09:53:02 51°11.075 2°43.537 257.4 14.8 254 10.3
2007-01-24 09:54:02 51°11.01 2°43.161 258.3 14.7 254 10.5
2007-01-24 09:55:02 51°10.945 2°42.783 258.8 14.8 253 10.6
2007-01-24 09:56:02 51°10.882 2°42.405 257.1 14.8 254 10.6
2007-01-24 09:57:02 51°10.825 2°42.026 260.4 14.8 257 10.7
2007-01-24 09:58:02 51°10.769 2°41.646 260.8 14.7 255 10.7
2007-01-24 09:59:02 51°10.713 2°41.266 260.9 14.7 258 10.7
2007-01-24 10:00:02 51°10.658 2°40.884 261.4 14.8 256 10.8
2007-01-24 10:01:02 51°10.602 2°40.504 259.8 14.8 258 11.3
2007-01-24 10:02:02 51°10.548 2°40.131 260.4 13.3 255 12
2007-01-24 10:03:02 51°10.501 2°39.883 247.5 6.9 242 12.5
2007-01-24 10:04:02 51°10.464 2°39.803 199.9 1.5 235 12.7
2007-01-24 10:05:02 51°10.466 2°39.772 181.4 1.1 278 4.4
2007-01-24 10:06:02 51°10.467 2°39.741 180.4 1 266 12.8
2007-01-24 10:07:02 51°10.464 2°39.714 179.2 1 256 12.7
2007-01-24 10:08:02 51°10.454 2°39.686 181.5 1.6 226 12.8
2007-01-24 10:09:02 51°10.414 2°39.649 197.1 3.9 209 12.7
2007-01-24 10:10:02 51°10.356 2°39.56 233.1 5.1 236 12.5
2007-01-24 10:11:02 51°10.312 2°39.444 237.8 5.1 239 12.8
2007-01-24 10:12:02 51°10.27 2°39.328 242 4.8 242 12.9
2007-01-24 10:13:02 51°10.24 2°39.222 245.3 4.2 247 13.3
2007-01-24 10:14:02 51°10.211 2°39.132 242 3.4 241 13.4
2007-01-24 10:15:01 51°10.191 2°39.057 247.5 2.9 251 13.5
2007-01-24 10:16:02 51°10.175 2°38.989 252.9 2.6 250 13.4
2007-01-24 10:17:02 51°10.162 2°38.927 255.9 2.4 251 13.4
2007-01-24 10:18:02 51°10.149 2°38.867 251 2.4 246 13.7
2007-01-24 10:19:02 51°10.133 2°38.802 245.3 2.9 247 13.6
2007-01-24 10:20:02 51°10.11 2°38.727 243.6 3.3 243 13.4
2007-01-24 10:21:02 51°10.088 2°38.647 245.4 3.3 244 13.6
2007-01-24 10:22:02 51°10.065 2°38.568 244.5 3.2 247 13.7
2007-01-24 10:23:02 51°10.043 2°38.489 244.9 3.3 248 13.8
2007-01-24 10:24:02 51°10.022 2°38.41 245.8 3.2 244 14
2007-01-24 10:25:02 51°10 2°38.332 245.8 3.2 245 14
2007-01-24 10:26:02 51°9.978 2°38.253 246.1 3.2 247 14.4
2007-01-24 10:27:02 51°9.957 2°38.174 247.2 3.2 247 14.6
2007-01-24 10:28:02 51°9.937 2°38.094 247.6 3.2 245 14.6
2007-01-24 10:29:02 51°9.917 2°38.015 247 3.2 251 14.8
2007-01-24 10:30:02 51°9.897 2°37.935 247.5 3.2 246 14.4
2007-01-24 10:31:02 51°9.877 2°37.854 249.2 3.3 249 14.7
2007-01-24 10:32:02 51°9.857 2°37.774 246.9 3.2 249 14.9
2007-01-24 10:33:02 51°9.836 2°37.697 244.9 3.2 245 14.9
2007-01-24 10:34:02 51°9.814 2°37.62 244.5 3.2 245 14.8
2007-01-24 10:35:02 51°9.793 2°37.541 245.7 3.2 246 14.9
2007-01-24 10:36:02 51°9.772 2°37.463 246 3.2 245 14.7
2007-01-24 10:37:02 51°9.75 2°37.384 245.5 3.2 246 14.7
2007-01-24 10:38:02 51°9.73 2°37.305 247.6 3.3 250 14.7
2007-01-24 10:39:02 51°9.708 2°37.227 244.2 3.2 245 14.7
2007-01-24 10:40:02 51°9.686 2°37.149 245.7 3.2 247 14.5
2007-01-24 10:41:02 51°9.664 2°37.072 246 3.2 246 14.5
2007-01-24 10:42:02 51°9.643 2°36.994 246.9 3.3 245 14.3
2007-01-24 10:43:02 51°9.622 2°36.916 248.3 3.2 248 14.1
2007-01-24 10:44:02 51°9.603 2°36.837 250.4 3.2 249 14.5
2007-01-24 10:45:02 51°9.586 2°36.761 253.7 3 250 14.3
2007-01-24 10:46:02 51°9.579 2°36.687 281.6 2.7 269 14.3
2007-01-24 10:47:02 51°9.583 2°36.622 308.9 2.2 277 14.8
2007-01-24 10:48:02 51°9.587 2°36.569 311.1 1.9 274 14.8
2007-01-24 10:49:02 51°9.589 2°36.523 308.3 1.7 271 15.1
2007-01-24 10:50:02 51°9.589 2°36.479 305.4 2.1 277 14.6
2007-01-24 10:51:02 51°9.602 2°36.402 306 3.7 289 15.2
2007-01-24 10:52:02 51°9.642 2°36.246 304.5 8 293 15.3
2007-01-24 10:53:02 51°9.703 2°36.038 305.5 9.7 296 16.1
2007-01-24 10:54:02 51°9.786 2°35.772 305.5 11.8 297 16.6
2007-01-24 10:55:02 51°9.88 2°35.484 306 12.4 298 16.6
2007-01-24 10:56:02 51°10.034 2°35.36 23.1 10.5 30 11.3
2007-01-24 10:57:02 51°10.201 2°35.518 33.6 12.3 28 9.5
2007-01-24 10:58:02 51°10.383 2°35.672 34.2 12.4 30 9.3
2007-01-24 10:59:02 51°10.559 2°35.841 36.6 12.4 31 8.7
2007-01-24 11:00:02 51°10.736 2°36.015 38.4 12.6 34 8.8
2007-01-24 11:01:02 51°10.911 2°36.199 39.1 12.7 34 9.4
2007-01-24 11:02:02 51°11.087 2°36.383 38.8 12.6 33 10.1
2007-01-24 11:03:02 51°11.263 2°36.565 38.7 12.6 33 10.3
2007-01-24 11:04:02 51°11.44 2°36.747 39.7 12.6 33 10.5
2007-01-24 11:05:02 51°11.615 2°36.931 39 12.5 33 10.3
2007-01-24 11:06:02 51°11.79 2°37.114 39.3 12.5 34 10.7
2007-01-24 11:07:02 51°11.964 2°37.297 39.6 12.6 33 10.6
2007-01-24 11:08:02 51°12.139 2°37.48 39.9 12.6 34 10.7
2007-01-24 11:09:02 51°12.313 2°37.663 39.2 12.5 33 10.7
2007-01-24 11:10:02 51°12.487 2°37.845 39.1 12.5 35 11.3
2007-01-24 11:11:02 51°12.66 2°38.028 38.8 12.3 33 11.3
2007-01-24 11:12:02 51°12.834 2°38.209 38.8 12.6 33 11.8
2007-01-24 11:13:02 51°13.01 2°38.39 39.7 12.6 33 12.4
2007-01-24 11:14:02 51°13.183 2°38.572 39.8 12.5 33 12.9
2007-01-24 11:15:02 51°13.365 2°38.734 35.8 12.5 28 12.3
2007-01-24 11:16:02 51°13.561 2°38.846 20.3 12.7 12 13
2007-01-24 11:17:02 51°13.771 2°38.898 15 12.9 6 13
2007-01-24 11:18:02 51°13.984 2°38.879 0.7 12.9 344 11.4
2007-01-24 11:19:02 51°14.16 2°38.68 321.1 13.7 303 12.7
2007-01-24 11:20:02 51°14.2 2°38.315 276 14.5 262 16.6
2007-01-24 11:21:02 51°14.117 2°37.948 251.8 15 243 17.6
2007-01-24 11:22:02 51°14.008 2°37.589 249 15.2 242 18.7
2007-01-24 11:23:02 51°13.898 2°37.228 249.1 14.9 244 19.1
2007-01-24 11:24:02 51°13.789 2°36.866 247.6 15.2 246 19.5
2007-01-24 11:25:02 51°13.681 2°36.504 248.2 14.9 245 17.6
2007-01-24 11:26:02 51°13.573 2°36.142 247.8 15.2 245 17.8
2007-01-24 11:27:02 51°13.466 2°35.777 249.5 15.3 243 16.2
2007-01-24 11:28:02 51°13.355 2°35.414 248.2 15.2 245 16.1
2007-01-24 11:29:02 51°13.245 2°35.051 249.5 15.2 244 15.5
2007-01-24 11:30:02 51°13.134 2°34.692 249.1 15.2 240 15.9
2007-01-24 11:31:02 51°13.025 2°34.33 249.7 15.1 244 15.4
2007-01-24 11:32:02 51°12.914 2°33.973 248.2 15.1 246 14.9
2007-01-24 11:33:02 51°12.803 2°33.615 250.1 15.1 243 13.5
2007-01-24 11:34:02 51°12.694 2°33.26 250.4 14.5 245 15
2007-01-24 11:35:02 51°12.584 2°32.912 249.5 14.6 243 14.6
2007-01-24 11:36:02 51°12.474 2°32.561 249.5 14.7 242 16
2007-01-24 11:37:02 51°12.378 2°32.199 255 14.9 248 17.6
2007-01-24 11:38:02 51°12.285 2°31.831 254.8 15 248 20.5
2007-01-24 11:39:02 51°12.192 2°31.458 254.8 15.2 248 21.2
2007-01-24 11:40:02 51°12.097 2°31.086 253.4 15.3 250 21.4
2007-01-24 11:41:02 51°12.001 2°30.712 256.1 15 246 21.2
2007-01-24 11:42:02 51°11.907 2°30.336 255 15.3 248 21.4
2007-01-24 11:43:02 51°11.813 2°29.959 254.9 15.4 247 21.6
2007-01-24 11:44:02 51°11.721 2°29.581 254.3 15.1 250 22.2
2007-01-24 11:45:02 51°11.628 2°29.203 254.5 15.4 248 23
2007-01-24 11:46:02 51°11.538 2°28.824 255.5 15.3 250 22.7
2007-01-24 11:47:02 51°11.459 2°28.438 257 15.4 254 21.1
2007-01-24 11:48:02 51°11.388 2°28.051 262 15.1 256 22.3
2007-01-24 11:49:02 51°11.34 2°27.656 264.1 15.1 258 22.3
2007-01-24 11:50:02 51°11.295 2°27.268 264.3 14.8 259 21.6
2007-01-24 11:51:02 51°11.252 2°26.888 263.5 14.5 260 19.6
2007-01-24 11:52:02 51°11.206 2°26.513 262.5 14.5 260 17.1
2007-01-24 11:53:02 51°11.16 2°26.141 264.1 14 257 15.2
2007-01-24 11:54:02 51°11.123 2°25.771 272.6 14 271 12.5
2007-01-24 11:55:02 51°11.233 2°25.475 327.8 13.2 327 16.3
2007-01-24 11:56:02 51°11.438 2°25.448 18.9 12.4 20 20.6
2007-01-24 11:57:02 51°11.598 2°25.649 48 12.3 41 21.4
2007-01-24 11:58:02 51°11.756 2°25.858 42.5 12.4 39 21.8
2007-01-24 11:59:02 51°11.916 2°26.066 43.6 12.6 40 20.9
2007-01-24 12:00:02 51°12.077 2°26.277 43.9 12.5 41 20.3
2007-01-24 12:01:02 51°12.237 2°26.487 43.2 12.6 40 20.8
2007-01-24 12:02:02 51°12.4 2°26.696 43.3 12.6 40 21.8
2007-01-24 12:03:02 51°12.564 2°26.905 44.3 12.6 40 22.8
2007-01-24 12:04:02 51°12.727 2°27.112 44 12.5 40 23.5
2007-01-24 12:05:02 51°12.888 2°27.321 44.1 12.5 39 23.7
2007-01-24 12:06:02 51°13.051 2°27.528 44.3 12.5 38 23
2007-01-24 12:07:02 51°13.214 2°27.739 44.3 12.5 39 22
2007-01-24 12:08:02 51°13.376 2°27.951 44.5 12.6 42 21.5
2007-01-24 12:09:02 51°13.538 2°28.161 43.6 12.6 40 20.7
2007-01-24 12:10:02 51°13.7 2°28.373 44.2 12.6 38 20.3
2007-01-24 12:11:02 51°13.859 2°28.584 44.3 12.5 40 21.2
2007-01-24 12:12:02 51°14.019 2°28.793 43.6 12.3 40 21.6
2007-01-24 12:13:02 51°14.178 2°29.003 44.2 12.5 40 22
2007-01-24 12:14:02 51°14.339 2°29.213 44.1 12.5 40 22.1
2007-01-24 12:15:02 51°14.5 2°29.42 43.4 12.5 39 24.5
2007-01-24 12:16:02 51°14.664 2°29.624 42.8 12.5 38 25.2
2007-01-24 12:17:02 51°14.829 2°29.829 43.5 12.5 38 25.6
2007-01-24 12:18:02 51°14.993 2°30.036 43.5 12.6 37 26.3
2007-01-24 12:19:02 51°15.158 2°30.24 43.5 12.5 39 26.6
2007-01-24 12:20:02 51°15.323 2°30.443 44 12.5 38 26.2
2007-01-24 12:21:02 51°15.488 2°30.648 42.8 12.5 39 26.9
2007-01-24 12:22:02 51°15.654 2°30.852 43.9 12.7 38 27.2
2007-01-24 12:23:02 51°15.821 2°31.057 43.6 12.6 39 26.9
2007-01-24 12:24:02 51°15.984 2°31.269 44.8 12.8 38 26.4
2007-01-24 12:25:02 51°16.148 2°31.481 43.5 12.7 39 26.7
2007-01-24 12:26:02 51°16.312 2°31.692 44.2 12.6 40 27
2007-01-24 12:27:02 51°16.474 2°31.905 43.8 12.4 41 26.8
2007-01-24 12:28:02 51°16.632 2°32.116 44.7 12.3 41 25.3
2007-01-24 12:29:02 51°16.791 2°32.329 43.6 12.5 41 24.5
2007-01-24 12:30:02 51°16.951 2°32.54 44 12.5 41 25
2007-01-24 12:31:02 51°17.109 2°32.753 44.4 12.4 39 25.1
2007-01-24 12:32:02 51°17.268 2°32.965 43.5 12.5 40 24.8
2007-01-24 12:33:02 51°17.43 2°33.175 43.3 12.6 39 26.3
2007-01-24 12:34:02 51°17.597 2°33.374 42 12.5 37 27
2007-01-24 12:35:02 51°17.762 2°33.571 42.3 12.3 38 27.3
2007-01-24 12:36:02 51°17.927 2°33.768 41.4 12.4 37 26.4
2007-01-24 12:37:02 51°18.094 2°33.969 43.4 12.6 38 26.3
2007-01-24 12:38:02 51°18.255 2°34.173 43.1 12.4 40 26.3
2007-01-24 12:39:02 51°18.416 2°34.374 43.3 12.4 39 21.2
2007-01-24 12:40:02 51°18.58 2°34.579 42.4 12.5 39 23.6
2007-01-24 12:41:02 51°18.741 2°34.787 44.5 12.6 39 22.4
2007-01-24 12:42:02 51°18.903 2°34.995 44.2 12.5 39 20.2
2007-01-24 12:43:02 51°19.065 2°35.202 43.6 12.5 38 18.7
2007-01-24 12:44:02 51°19.227 2°35.407 42.8 12.4 39 20.4
2007-01-24 12:45:02 51°19.389 2°35.615 43.1 12.5 38 20
2007-01-24 12:46:02 51°19.551 2°35.823 42.8 12.6 39 20.9
2007-01-24 12:47:02 51°19.713 2°36.031 43.2 12.5 39 21.2
2007-01-24 12:48:02 51°19.873 2°36.24 43.6 12.4 37 21.1
2007-01-24 12:49:02 51°20.032 2°36.447 43.1 12.4 41 21.5
2007-01-24 12:50:02 51°20.196 2°36.654 42.9 12.5 38 22.3
2007-01-24 12:51:02 51°20.357 2°36.862 43.8 12.4 39 22.4
2007-01-24 12:52:02 51°20.52 2°37.07 42.7 12.5 39 22.3
2007-01-24 12:53:02 51°20.681 2°37.28 44.1 12.5 41 21.7
2007-01-24 12:54:02 51°20.842 2°37.489 43.2 12.3 41 23.1
2007-01-24 12:55:02 51°21.004 2°37.695 43.7 12.6 37 24.7
2007-01-24 12:56:02 51°21.198 2°37.775 8.2 12.7 359 25.4
2007-01-24 12:57:02 51°21.41 2°37.759 6.8 12.7 -999 25.8
2007-01-24 12:58:02 51°21.623 2°37.757 9.1 12.6 1 26.2
2007-01-24 12:59:02 51°21.834 2°37.774 11.1 12.8 3 29.2
2007-01-24 13:00:02 51°22.047 2°37.79 11.1 12.7 3 30.6
2007-01-24 13:01:02 51°22.26 2°37.808 10.8 12.7 3 29.8
2007-01-24 13:02:02 51°22.471 2°37.826 12.1 12.8 1 30.6
2007-01-24 13:03:02 51°22.683 2°37.848 11.5 12.8 4 30
2007-01-24 13:04:02 51°22.894 2°37.871 11.1 12.8 3 30.5
2007-01-24 13:05:02 51°23.102 2°37.91 20.4 12.4 19 26.2
2007-01-24 13:06:02 51°23.252 2°38.128 54.4 12.5 53 28.9
2007-01-24 13:07:02 51°23.397 2°38.369 44.3 12.7 42 25.4
2007-01-24 13:08:02 51°23.54 2°38.613 54.4 12.6 54 27.1
2007-01-24 13:09:02 51°23.672 2°38.875 53.3 12.7 51 27.1
2007-01-24 13:10:02 51°23.807 2°39.138 53.7 12.8 50 25.8
2007-01-24 13:11:02 51°23.945 2°39.395 53.4 12.7 49 26.7
2007-01-24 13:12:02 51°24.082 2°39.654 52.2 12.8 49 24.9
2007-01-24 13:13:02 51°24.222 2°39.915 52.3 12.9 49 26.2
2007-01-24 13:14:02 51°24.36 2°40.172 51.3 12.5 49 25.6
2007-01-24 13:15:02 51°24.498 2°40.426 52.7 12.8 49 23.5
2007-01-24 13:16:02 51°24.63 2°40.693 55.7 12.8 51 26.5
2007-01-24 13:17:02 51°24.757 2°40.962 54 12.6 53 25
2007-01-24 13:18:02 51°24.888 2°41.229 54.4 12.7 53 25.9
2007-01-24 13:19:02 51°25.018 2°41.5 55 12.8 52 26.9
2007-01-24 13:20:02 51°25.149 2°41.768 56.7 12.8 50 27
2007-01-24 13:21:02 51°25.28 2°42.035 54.7 12.9 52 25.3
2007-01-24 13:22:02 51°25.41 2°42.31 56 12.8 53 25.2
2007-01-24 13:23:02 51°25.542 2°42.581 55.1 12.8 54 25.9
2007-01-24 13:24:02 51°25.675 2°42.851 54.7 12.9 53 24.9
2007-01-24 13:25:02 51°25.807 2°43.122 55.1 12.8 54 24.9
2007-01-24 13:26:02 51°25.938 2°43.393 54.9 13 52 24.1
2007-01-24 13:27:02 51°26.072 2°43.663 54.8 12.9 52 26.6
2007-01-24 13:28:02 51°26.204 2°43.932 54.9 12.9 51 27.5
2007-01-24 13:29:02 51°26.337 2°44.2 54.5 12.8 52 27.3
2007-01-24 13:30:02 51°26.427 2°44.509 77.3 13 73 28.5
2007-01-24 13:31:02 51°26.459 2°44.85 80.8 12.9 81 27.3
2007-01-24 13:32:02 51°26.507 2°45.187 75.3 13 75 28.2
2007-01-24 13:33:02 51°26.559 2°45.522 77.1 12.8 77 28.8
2007-01-24 13:34:02 51°26.609 2°45.861 78.2 13.1 80 29
2007-01-24 13:35:02 51°26.657 2°46.2 78.3 13.1 76 29
2007-01-24 13:36:02 51°26.702 2°46.541 80.3 13.1 76 25.2
2007-01-24 13:37:02 51°26.743 2°46.886 80.2 13.2 80 29.2
2007-01-24 13:38:02 51°26.782 2°47.234 81.5 13.4 78 28
2007-01-24 13:39:02 51°26.821 2°47.579 79.7 13.2 81 24.8
2007-01-24 13:40:02 51°26.862 2°47.928 80.5 13.3 78 25.9
2007-01-24 13:41:02 51°26.902 2°48.274 79.9 13.3 80 23.8
2007-01-24 13:42:02 51°26.941 2°48.62 79.7 13.2 81 23.9
2007-01-24 13:43:02 51°26.981 2°48.968 81.2 13.3 80 24.6
2007-01-24 13:44:02 51°27.02 2°49.316 81.5 13.3 79 23.4
2007-01-24 13:45:02 51°27.057 2°49.662 80.2 13.1 82 23
2007-01-24 13:46:02 51°27.094 2°50.009 80.5 13.2 82 22.1
2007-01-24 13:47:02 51°27.133 2°50.355 80.1 13.1 78 19
2007-01-24 13:48:02 51°27.171 2°50.707 80.3 13.5 80 20.9
2007-01-24 13:49:02 51°27.187 2°51.059 95.8 13.4 106 19.7
2007-01-24 13:50:02 51°27.003 2°51.227 179.1 14.2 185 22.5
2007-01-24 13:51:02 51°26.856 2°50.967 258.1 14 258 21.7
2007-01-24 13:52:02 51°26.87 2°50.605 289.3 13.9 283 23.9
2007-01-24 13:53:02 51°26.933 2°50.252 295.1 13.6 289 19.4
2007-01-24 13:54:02 51°27.006 2°49.908 299.2 13.8 290 22.8
2007-01-24 13:55:02 51°27.052 2°49.621 278.7 8.7 266 23.3
2007-01-24 13:56:02 51°27.04 2°49.452 278.8 4.4 266 24.9
2007-01-24 13:57:02 51°27.035 2°49.337 272.1 5.5 253 24.2
2007-01-24 13:58:02 51°26.94 2°49.101 238.5 13.9 233 23.9
2007-01-24 13:59:02 51°26.786 2°48.815 232.8 14.4 226 23.4
2007-01-24 14:00:02 51°26.625 2°48.532 231.4 14.6 228 23.3
2007-01-24 14:01:02 51°26.484 2°48.226 244.6 14.2 237 23.8
2007-01-24 14:02:02 51°26.377 2°47.894 249.6 14.1 244 22.8
2007-01-24 14:03:02 51°26.273 2°47.561 249.3 14.1 242 23.5
2007-01-24 14:04:02 51°26.17 2°47.225 250.2 14 245 26.2
2007-01-24 14:05:02 51°26.068 2°46.893 250.3 14 246 23.8
2007-01-24 14:06:02 51°25.917 2°46.648 204.8 13.2 190 23
2007-01-24 14:07:02 51°25.695 2°46.742 161.8 14.4 160 25.1
2007-01-24 14:08:02 51°25.46 2°46.8 175.1 13.8 173 26.1
2007-01-24 14:09:02 51°25.22 2°46.851 175.9 14.6 173 26.1
2007-01-24 14:10:02 51°24.984 2°46.891 176 14.6 174 26.2
2007-01-24 14:11:02 51°24.749 2°46.931 179.5 14.1 175 30.2
2007-01-24 14:12:02 51°24.515 2°46.973 177.6 14 173 30.9
2007-01-24 14:13:02 51°24.285 2°47.012 177.8 13.9 174 30.2
2007-01-24 14:14:02 51°24.051 2°47.049 178.9 14.3 174 28.9
2007-01-24 14:15:02 51°23.817 2°47.093 176.2 14.1 176 27.5
2007-01-24 14:16:02 51°23.585 2°47.138 177.6 14.2 173 26.6
2007-01-24 14:17:02 51°23.354 2°47.186 176.5 14 174 22.9
2007-01-24 14:18:02 51°23.12 2°47.232 177.6 14.1 174 22.9
2007-01-24 14:19:02 51°22.886 2°47.273 177.9 14 174 22.5
2007-01-24 14:20:02 51°22.654 2°47.319 178.7 13.7 171 20.9
2007-01-24 14:21:02 51°22.422 2°47.372 178.5 14.4 169 14.7
2007-01-24 14:22:02 51°22.189 2°47.422 178.6 14.4 172 23.9
2007-01-24 14:23:02 51°21.959 2°47.471 179.5 13.9 175 25.8
2007-01-24 14:24:02 51°21.731 2°47.499 186 14 180 24.4
2007-01-24 14:25:02 51°21.504 2°47.478 190.5 13.9 180 23.7
2007-01-24 14:26:02 51°21.279 2°47.46 191.1 13.9 185 24.4
2007-01-24 14:27:02 51°21.056 2°47.437 188.7 13.2 186 22.8
2007-01-24 14:28:02 51°20.83 2°47.414 189.3 13.5 184 20.9
2007-01-24 14:29:02 51°20.611 2°47.362 199.4 13.3 195 19.3
2007-01-24 14:30:02 51°20.403 2°47.246 203.8 13 200 18.7
2007-01-24 14:31:02 51°20.196 2°47.127 203.2 13.4 200 20.8
2007-01-24 14:32:02 51°19.99 2°46.999 207.3 13.6 200 21.9
2007-01-24 14:33:02 51°19.788 2°46.859 205.4 13.1 206 22.3
2007-01-24 14:34:02 51°19.587 2°46.723 206.1 13.1 204 23.1
2007-01-24 14:35:02 51°19.39 2°46.571 207.9 13 208 23.1
2007-01-24 14:36:02 51°19.191 2°46.424 207.3 12.9 204 23.1
2007-01-24 14:37:02 51°18.993 2°46.281 207.6 13.6 205 23.8
2007-01-24 14:38:02 51°18.796 2°46.132 207.6 13.1 206 23.7
2007-01-24 14:39:02 51°18.6 2°45.991 209 12.7 204 23.2
2007-01-24 14:40:02 51°18.4 2°45.85 207.1 12.8 205 22.3
2007-01-24 14:41:02 51°18.206 2°45.7 211.9 12.8 205 21.6
2007-01-24 14:42:02 51°18.015 2°45.546 209.3 13 209 20.9
2007-01-24 14:43:02 51°17.82 2°45.396 210 12.8 205 20.4
2007-01-24 14:44:02 51°17.627 2°45.239 211.9 12.8 205 18.7
2007-01-24 14:45:02 51°17.436 2°45.089 211.8 12.8 205 19.3
2007-01-24 14:46:02 51°17.247 2°44.928 211.9 13 210 18.5
2007-01-24 14:47:02 51°17.057 2°44.766 211.4 13 209 17.6
2007-01-24 14:48:02 51°16.869 2°44.6 213.1 12.9 208 16.5
2007-01-24 14:49:02 51°16.682 2°44.439 212.8 12.5 209 16.6
2007-01-24 14:50:02 51°16.494 2°44.28 213.8 12.5 209 15.9
2007-01-24 14:51:02 51°16.305 2°44.119 212.1 12.6 203 15
2007-01-24 14:52:02 51°16.102 2°44.017 193.1 12.8 184 14.4
2007-01-24 14:53:02 51°15.883 2°44.049 173.4 13.5 161 14
2007-01-24 14:54:02 51°15.7 2°44.266 133.5 14 126 15.1
2007-01-24 14:55:02 51°15.603 2°44.619 112.5 15 108 15.6
2007-01-24 14:56:02 51°15.586 2°45.008 82.9 15.1 78 15.9
2007-01-24 14:57:02 51°15.647 2°45.394 77.4 15 76 19
2007-01-24 14:58:02 51°15.689 2°45.785 84.5 15.1 83 19.8
2007-01-24 14:59:02 51°15.714 2°46.187 91.8 15.2 87 20
2007-01-24 15:00:02 51°15.709 2°46.59 96.5 15.1 96 19.9
2007-01-24 15:01:02 51°15.692 2°46.998 99.4 15.6 95 18.3
2007-01-24 15:02:02 51°15.679 2°47.409 99 15.4 95 17.4
2007-01-24 15:03:02 51°15.663 2°47.811 99.2 15.1 95 15.8
2007-01-24 15:04:02 51°15.647 2°48.214 98.3 15.2 95 14.4
2007-01-24 15:05:02 51°15.63 2°48.619 99 15.1 95 13.4
2007-01-24 15:06:02 51°15.613 2°49.02 97.9 14.9 93 13.7
2007-01-24 15:07:02 51°15.602 2°49.419 98 15 93 15.3
2007-01-24 15:08:02 51°15.589 2°49.819 98.7 15.1 92 16.1
2007-01-24 15:09:02 51°15.582 2°50.217 98.7 13.9 91 16
2007-01-24 15:10:02 51°15.574 2°50.548 98.7 12.7 95 16
2007-01-24 15:11:02 51°15.557 2°50.902 105.5 13.6 106 16
2007-01-24 15:12:02 51°15.481 2°51.244 120.9 13.7 111 15.8
2007-01-24 15:13:02 51°15.39 2°51.575 125.7 13.8 113 15.5
2007-01-24 15:14:02 51°15.296 2°51.9 123.4 13.3 117 15
2007-01-24 15:15:02 51°15.196 2°52.241 123 14.4 118 14.3
2007-01-24 15:16:02 51°15.094 2°52.59 126.1 14.7 115 13.9
2007-01-24 15:17:02 51°14.993 2°52.944 124.9 14.9 114 14.1
2007-01-24 15:18:02 51°14.888 2°53.286 127 13.5 114 14.2
2007-01-24 15:19:02 51°14.817 2°53.567 119.4 10.7 104 13.8
2007-01-24 15:20:02 51°14.804 2°53.84 98.7 9.2 88 12.6
2007-01-24 15:21:02 51°14.83 2°54.031 79.8 6 67 12.7
2007-01-24 15:22:02 51°14.862 2°54.154 84.7 4.6 75 12.6
2007-01-24 15:23:02 51°14.853 2°54.274 132.2 5.5 109 13.2
2007-01-24 15:24:02 51°14.766 2°54.505 136.3 13.3 128 12.5
2007-01-24 15:25:02 51°14.609 2°54.766 149 13.6 140 12.4
2007-01-24 15:26:02 51°14.432 2°54.999 151 14.2 140 13.2
2007-01-24 15:27:02 51°14.277 2°55.239 135.6 11.4 135 13.8
2007-01-24 15:28:02 51°14.16 2°55.377 154.9 6.9 152 -999
2007-01-24 15:29:02 51°14.069 2°55.451 158.7 5.7 155 13.7
2007-01-24 15:30:02 51°13.985 2°55.514 158.9 5.3 154 13.8
2007-01-24 15:31:02 51°13.909 2°55.572 158.6 4.9 155 13.9
2007-01-24 15:32:02 51°13.828 2°55.632 157.2 5.9 153 13.8
2007-01-24 15:33:02 51°13.752 2°55.716 143.2 5.1 139 13.3
2007-01-24 15:34:02 51°13.696 2°55.81 133.2 4.7 127 13.4
2007-01-24 15:35:02 51°13.65 2°55.911 130 4.6 125 13.1
2007-01-24 15:36:02 51°13.615 2°56.006 119.6 4.1 113 13.3
2007-01-24 15:37:02 51°13.602 2°56.076 112.7 1.1 106 -999
2007-01-24 15:38:03 51°13.597 2°56.092 123.6 0.3 137 -999
2007-01-24 15:39:03 51°13.598 2°56.092 119 0.3 283 -999
2007-01-24 15:40:03 51°13.598 2°56.094 124.8 0.3 70 -999